Time;durP1;ratioP1;P1;durP2;ratioP2;P2;SDS_P1;SDS_P2;PMS_P1;PMS_P2;Temp;Humidity;BMP_temperature;BMP_pressure;BME280_temperature;BME280_humidity;BME280_pressure;Samples;Min_cycle;Max_cycle;Signal;HPM_P1;HPM_P2
2022/07/21 00:00:23;;;;;;;;;;;24.60;74.40;;;;;;4929544;28;20524;-79
2022/07/21 00:02:57;;;;;;;;;;;24.60;74.30;;;;;;4929663;28;19930;-78
2022/07/21 00:05:26;;;;;;;;;;;24.60;74.40;;;;;;4928503;28;19943;-80
2022/07/21 00:07:53;;;;;;;;;;;24.50;74.20;;;;;;4927194;28;20491;-76
2022/07/21 00:10:24;;;;;;;;;;;24.50;74.40;;;;;;4936398;28;19950;-80
2022/07/21 00:12:54;;;;;;;;;;;24.50;74.20;;;;;;4920018;28;19938;-78
2022/07/21 00:15:24;;;;;;;;;;;24.40;74.20;;;;;;4934091;28;19959;-78
2022/07/21 00:17:51;;;;;;;;;;;24.40;74.20;;;;;;4926922;28;19927;-78
2022/07/21 00:20:27;;;;;;;;;;;24.40;74.30;;;;;;4928322;28;19937;-78
2022/07/21 00:23:00;;;;;;;;;;;24.40;74.40;;;;;;4928006;28;19952;-78
2022/07/21 00:25:35;;;;;;;;;;;24.40;74.30;;;;;;4927798;28;19935;-77
2022/07/21 00:28:12;;;;;;;;;;;24.30;74.20;;;;;;4927649;28;20029;-79
2022/07/21 00:33:26;;;;;;;;;;;24.30;74.20;;;;;;4954243;28;19934;-77
2022/07/21 00:36:23;;;;;;;;;;;24.20;74.00;;;;;;4942909;28;19938;-80
2022/07/21 00:38:55;;;;;;;;;;;24.20;74.60;;;;;;4912595;28;20133;-80
2022/07/21 00:41:31;;;;;;;;;;;24.20;74.00;;;;;;4934853;28;19931;-78
2022/07/21 00:44:01;;;;;;;;;;;24.20;74.10;;;;;;4922026;28;20416;-78
2022/07/21 00:46:31;;;;;;;;;;;24.10;74.10;;;;;;4933461;28;20258;-78
2022/07/21 00:49:01;;;;;;;;;;;24.10;74.20;;;;;;4924813;28;19938;-76
2022/07/21 00:51:33;;;;;;;;;;;24.10;74.20;;;;;;4938246;28;20394;-78
2022/07/21 00:54:06;;;;;;;;;;;24.10;74.20;;;;;;4938112;28;19946;-79
2022/07/21 00:56:40;;;;;;;;;;;24.10;74.20;;;;;;4948377;28;19954;-77
2022/07/21 00:59:07;;;;;;;;;;;24.00;74.10;;;;;;4923416;28;20021;-77
2022/07/21 01:01:34;;;;;;;;;;;24.00;74.20;;;;;;4947459;28;20345;-78
2022/07/21 01:04:02;;;;;;;;;;;24.00;74.10;;;;;;4924766;28;19961;-77
2022/07/21 01:06:32;;;;;;;;;;;23.90;74.10;;;;;;4922184;28;19926;-78
2022/07/21 01:09:10;;;;;;;;;;;23.90;74.30;;;;;;4918031;28;19935;-79
2022/07/21 01:11:41;;;;;;;;;;;23.90;74.20;;;;;;4921774;28;19933;-78
2022/07/21 01:16:56;;;;;;;;;;;23.90;74.40;;;;;;4925761;28;19946;-79
2022/07/21 01:19:33;;;;;;;;;;;23.80;74.70;;;;;;4936493;28;19995;-78
2022/07/21 01:22:15;;;;;;;;;;;23.80;75.00;;;;;;4923329;28;19935;-77
2022/07/21 01:24:57;;;;;;;;;;;23.80;75.20;;;;;;4925558;28;20131;-78
2022/07/21 01:27:33;;;;;;;;;;;23.80;74.80;;;;;;4925809;28;20295;-79
2022/07/21 01:30:15;;;;;;;;;;;23.80;74.60;;;;;;4924642;28;19934;-78
2022/07/21 01:32:55;;;;;;;;;;;23.70;74.50;;;;;;4937409;28;19927;-78
2022/07/21 01:35:25;;;;;;;;;;;23.70;74.40;;;;;;4921098;28;19969;-79
2022/07/21 01:41:28;;;;;;;;;;;23.70;74.30;;;;;;4928329;28;20655;-77
2022/07/21 01:43:53;;;;;;;;;;;23.60;74.30;;;;;;4926128;28;19926;-78
2022/07/21 01:46:34;;;;;;;;;;;23.60;74.40;;;;;;4932991;28;19933;-78
2022/07/21 01:49:08;;;;;;;;;;;23.60;74.50;;;;;;4933275;28;19970;-79
2022/07/21 01:51:44;;;;;;;;;;;23.60;74.60;;;;;;4917939;28;19993;-79
2022/07/21 01:54:30;;;;;;;;;;;23.50;74.50;;;;;;4932173;28;20510;-78
2022/07/21 01:57:07;;;;;;;;;;;23.50;74.50;;;;;;4927076;28;19977;-79
2022/07/21 01:59:37;;;;;;;;;;;23.50;74.50;;;;;;4925668;28;19931;-81
2022/07/21 02:02:20;;;;;;;;;;;23.50;74.50;;;;;;4931458;28;19927;-77
2022/07/21 02:04:52;;;;;;;;;;;23.50;74.50;;;;;;4924461;28;19981;-78
2022/07/21 02:07:21;;;;;;;;;;;23.50;74.60;;;;;;4930343;28;19938;-77
2022/07/21 02:10:11;;;;;;;;;;;23.40;74.50;;;;;;4926381;28;19939;-77
2022/07/21 02:12:38;;;;;;;;;;;23.40;74.50;;;;;;4923665;28;19935;-79
2022/07/21 02:15:08;;;;;;;;;;;23.40;74.40;;;;;;4938971;28;20397;-76
2022/07/21 02:17:39;;;;;;;;;;;23.30;74.40;;;;;;4924270;28;19927;-78
2022/07/21 02:20:08;;;;;;;;;;;23.40;74.60;;;;;;4926131;28;19945;-78
2022/07/21 02:22:34;;;;;;;;;;;23.30;74.50;;;;;;4931982;28;19978;-78
2022/07/21 02:25:03;;;;;;;;;;;23.30;74.50;;;;;;4920061;28;19938;-79
2022/07/21 02:30:13;;;;;;;;;;;23.30;74.70;;;;;;5031097;28;20351;-77
2022/07/21 02:32:43;;;;;;;;;;;23.30;74.50;;;;;;5034605;28;19928;-76
2022/07/21 02:35:10;;;;;;;;;;;23.20;74.60;;;;;;5040587;28;19929;-76
2022/07/21 02:37:41;;;;;;;;;;;23.20;74.60;;;;;;5037097;28;19971;-75
2022/07/21 02:43:06;;;;;;;;;;;23.20;74.70;;;;;;5038160;28;20086;-76
2022/07/21 02:45:34;;;;;;;;;;;23.20;74.90;;;;;;5038383;28;19933;-78
2022/07/21 02:48:06;;;;;;;;;;;23.10;74.60;;;;;;5043343;28;20016;-78
2022/07/21 02:50:37;;;;;;;;;;;23.10;74.70;;;;;;5038543;28;20028;-74
2022/07/21 02:53:08;;;;;;;;;;;23.10;74.70;;;;;;5046731;28;20417;-77
2022/07/21 02:55:53;;;;;;;;;;;23.10;74.80;;;;;;5045092;28;19929;-73
2022/07/21 02:58:24;;;;;;;;;;;23.10;74.80;;;;;;5041491;28;19948;-77
2022/07/21 03:00:58;;;;;;;;;;;23.00;74.80;;;;;;5040422;28;19935;-76
2022/07/21 03:03:34;;;;;;;;;;;23.00;75.60;;;;;;5043016;28;20024;-76
2022/07/21 03:06:04;;;;;;;;;;;23.00;75.00;;;;;;5034773;28;19940;-77
2022/07/21 03:08:34;;;;;;;;;;;23.00;75.00;;;;;;5048919;28;19956;-76
2022/07/21 03:11:06;;;;;;;;;;;23.00;75.00;;;;;;5043783;28;20015;-77
2022/07/21 03:13:34;;;;;;;;;;;22.90;75.10;;;;;;5040801;28;19929;-75
2022/07/21 03:16:07;;;;;;;;;;;22.90;75.30;;;;;;5036053;28;22013;-74
2022/07/21 03:18:35;;;;;;;;;;;22.90;75.40;;;;;;5043241;28;20395;-76
2022/07/21 03:21:01;;;;;;;;;;;22.90;75.00;;;;;;5033514;28;20418;-77
2022/07/21 03:23:28;;;;;;;;;;;22.90;75.00;;;;;;5032352;28;19925;-77
2022/07/21 03:25:59;;;;;;;;;;;22.90;75.20;;;;;;5040530;28;19928;-77
2022/07/21 03:28:40;;;;;;;;;;;22.90;75.20;;;;;;5019633;28;19926;-77
2022/07/21 03:31:10;;;;;;;;;;;22.80;75.20;;;;;;4960204;28;19930;-76
2022/07/21 03:33:49;;;;;;;;;;;22.80;75.20;;;;;;4961298;28;20049;-77
2022/07/21 03:36:29;;;;;;;;;;;;;;;;;;;;;
2022/07/21 03:38:59;;;;;;;;;;;22.80;75.40;;;;;;4954207;28;20021;-76
2022/07/21 03:41:27;;;;;;;;;;;22.80;75.30;;;;;;4966496;28;20452;-76
2022/07/21 03:43:57;;;;;;;;;;;22.80;75.40;;;;;;4965945;28;19926;-76
2022/07/21 03:46:29;;;;;;;;;;;22.70;75.50;;;;;;4960625;28;20384;-76
2022/07/21 03:49:11;;;;;;;;;;;22.70;75.60;;;;;;4961274;28;19934;-77
2022/07/21 03:51:47;;;;;;;;;;;22.70;75.50;;;;;;5041327;28;20037;-77
2022/07/21 03:54:22;;;;;;;;;;;22.70;75.40;;;;;;4966611;28;19961;-75
2022/07/21 03:56:59;;;;;;;;;;;22.70;75.50;;;;;;4965993;28;20402;-77
2022/07/21 03:59:26;;;;;;;;;;;22.70;75.50;;;;;;4965924;28;19926;-76
2022/07/21 04:01:57;;;;;;;;;;;22.60;75.40;;;;;;4958052;28;19932;-76
2022/07/21 04:04:29;;;;;;;;;;;22.60;75.50;;;;;;4948575;28;20581;-76
2022/07/21 04:07:10;;;;;;;;;;;22.60;75.50;;;;;;4965990;28;20424;-75
2022/07/21 04:09:37;;;;;;;;;;;22.60;75.40;;;;;;5013017;28;20012;-78
2022/07/21 04:12:04;;;;;;;;;;;22.60;75.60;;;;;;4959774;28;20069;-77
2022/07/21 04:14:31;;;;;;;;;;;22.50;75.50;;;;;;4967065;28;19977;-76
2022/07/21 04:16:59;;;;;;;;;;;22.60;75.60;;;;;;4963776;28;19930;-77
2022/07/21 04:19:26;;;;;;;;;;;22.50;75.40;;;;;;4966336;28;19957;-76
2022/07/21 04:21:57;;;;;;;;;;;22.50;75.40;;;;;;4961297;28;19963;-75
2022/07/21 04:24:28;;;;;;;;;;;22.50;75.60;;;;;;4956988;28;19937;-74
2022/07/21 04:26:54;;;;;;;;;;;22.50;75.50;;;;;;4951960;28;19931;-75
2022/07/21 04:29:30;;;;;;;;;;;22.50;75.80;;;;;;4955371;28;19937;-75
2022/07/21 04:32:05;;;;;;;;;;;22.50;75.80;;;;;;4950419;28;19940;-73
2022/07/21 04:34:32;;;;;;;;;;;22.50;75.70;;;;;;4956207;28;19987;-75
2022/07/21 04:36:59;;;;;;;;;;;22.40;75.70;;;;;;4950334;28;19930;-76
2022/07/21 04:39:27;;;;;;;;;;;22.40;75.50;;;;;;4958336;28;19930;-77
2022/07/21 04:41:54;;;;;;;;;;;22.40;75.60;;;;;;4962649;28;19936;-73
2022/07/21 04:44:21;;;;;;;;;;;22.40;75.70;;;;;;4949668;28;20555;-74
2022/07/21 04:46:48;;;;;;;;;;;22.40;75.70;;;;;;4954968;28;19937;-75
2022/07/21 04:49:16;;;;;;;;;;;22.40;75.90;;;;;;4958734;28;19930;-77
2022/07/21 04:51:43;;;;;;;;;;;22.40;75.80;;;;;;5016518;28;20542;-76
2022/07/21 04:54:09;;;;;;;;;;;22.40;75.90;;;;;;4953792;28;19934;-74
2022/07/21 04:56:36;;;;;;;;;;;22.40;76.00;;;;;;5026863;28;19976;-76
2022/07/21 04:59:03;;;;;;;;;;;22.30;75.90;;;;;;4954378;28;19935;-76
2022/07/21 05:01:30;;;;;;;;;;;22.30;75.90;;;;;;5023328;28;19930;-74
2022/07/21 05:03:57;;;;;;;;;;;22.30;76.00;;;;;;4956344;28;19953;-78
2022/07/21 05:06:25;;;;;;;;;;;22.30;76.20;;;;;;4956628;28;19936;-81
2022/07/21 05:08:52;;;;;;;;;;;22.30;76.20;;;;;;5025373;28;19930;-79
2022/07/21 05:11:19;;;;;;;;;;;22.30;76.30;;;;;;4948642;28;19937;-76
2022/07/21 05:13:46;;;;;;;;;;;22.30;77.30;;;;;;4947140;28;20232;-76
2022/07/21 05:16:13;;;;;;;;;;;22.30;78.60;;;;;;4950716;28;20038;-76
2022/07/21 05:18:40;;;;;;;;;;;22.30;80.40;;;;;;4945941;28;19934;-76
2022/07/21 05:21:07;;;;;;;;;;;22.30;81.80;;;;;;4964547;28;20900;-77
2022/07/21 05:23:35;;;;;;;;;;;22.30;81.50;;;;;;4969323;28;20417;-74
2022/07/21 05:26:02;;;;;;;;;;;22.30;81.20;;;;;;4967393;28;20017;-75
2022/07/21 05:28:29;;;;;;;;;;;22.30;80.70;;;;;;4954674;28;20311;-76
2022/07/21 05:30:55;;;;;;;;;;;22.30;80.60;;;;;;5028257;28;20013;-75
2022/07/21 05:33:22;;;;;;;;;;;22.30;80.40;;;;;;5039452;28;19927;-75
2022/07/21 05:35:49;;;;;;;;;;;22.30;80.50;;;;;;4956968;28;19972;-74
2022/07/21 05:38:16;;;;;;;;;;;22.30;80.70;;;;;;4964556;28;19969;-76
2022/07/21 05:40:44;;;;;;;;;;;22.30;81.20;;;;;;4972596;28;19965;-75
2022/07/21 05:43:11;;;;;;;;;;;22.30;81.30;;;;;;4965197;28;20444;-74
2022/07/21 05:45:38;;;;;;;;;;;22.20;80.90;;;;;;4966876;28;19934;-75
2022/07/21 05:48:05;;;;;;;;;;;22.30;81.10;;;;;;4971892;28;19933;-75
2022/07/21 05:50:32;;;;;;;;;;;22.20;80.70;;;;;;4983298;28;20383;-75
2022/07/21 05:52:59;;;;;;;;;;;22.20;80.80;;;;;;4964896;28;20322;-77
2022/07/21 05:55:25;;;;;;;;;;;22.20;80.80;;;;;;4959274;28;20016;-75
2022/07/21 05:57:54;;;;;;;;;;;22.20;80.70;;;;;;4972070;28;19934;-77
2022/07/21 06:00:20;;;;;;;;;;;22.20;80.80;;;;;;5047847;28;20495;-75
2022/07/21 06:02:47;;;;;;;;;;;22.20;80.80;;;;;;4965385;28;20044;-75
2022/07/21 06:05:15;;;;;;;;;;;22.20;80.90;;;;;;4962965;28;19930;-76
2022/07/21 06:07:41;;;;;;;;;;;22.20;80.90;;;;;;4971025;28;20361;-75
2022/07/21 06:10:09;;;;;;;;;;;22.20;80.90;;;;;;4960696;28;19960;-75
2022/07/21 06:12:36;;;;;;;;;;;22.20;80.90;;;;;;4980998;28;19932;-74
2022/07/21 06:15:04;;;;;;;;;;;22.20;81.20;;;;;;5026269;28;19997;-74
2022/07/21 06:17:34;;;;;;;;;;;22.20;81.20;;;;;;4972439;28;19995;-75
2022/07/21 06:20:00;;;;;;;;;;;22.20;81.30;;;;;;5040431;28;19930;-75
2022/07/21 06:22:27;;;;;;;;;;;22.10;81.40;;;;;;4966399;28;19953;-75
2022/07/21 06:24:54;;;;;;;;;;;22.20;81.40;;;;;;4966738;28;20369;-74
2022/07/21 06:27:21;;;;;;;;;;;22.20;81.50;;;;;;4974787;28;20044;-75
2022/07/21 06:29:47;;;;;;;;;;;22.20;81.50;;;;;;4967180;28;19966;-76
2022/07/21 06:32:16;;;;;;;;;;;22.10;81.50;;;;;;4968129;28;19932;-75
2022/07/21 06:34:42;;;;;;;;;;;22.20;81.50;;;;;;4964418;28;19965;-75
2022/07/21 06:37:09;;;;;;;;;;;22.10;81.60;;;;;;4997517;28;19930;-76
2022/07/21 06:39:39;;;;;;;;;;;22.10;81.60;;;;;;4977015;28;19926;-75
2022/07/21 06:42:07;;;;;;;;;;;22.10;81.60;;;;;;4975756;28;20388;-75
2022/07/21 06:44:36;;;;;;;;;;;22.10;81.60;;;;;;5031261;28;19971;-75
2022/07/21 06:47:04;;;;;;;;;;;22.20;81.60;;;;;;5017600;28;19941;-75
2022/07/21 06:49:32;;;;;;;;;;;22.10;81.70;;;;;;4959189;28;19934;-74
2022/07/21 06:51:59;;;;;;;;;;;22.10;81.80;;;;;;4967059;28;19934;-75
2022/07/21 06:54:26;;;;;;;;;;;22.20;81.90;;;;;;4977668;28;20025;-75
2022/07/21 06:56:53;;;;;;;;;;;22.10;81.60;;;;;;4973748;28;19927;-75
2022/07/21 06:59:19;;;;;;;;;;;22.10;81.70;;;;;;5027347;28;19930;-75
2022/07/21 07:01:46;;;;;;;;;;;22.10;81.50;;;;;;4969034;28;20400;-74
2022/07/21 07:04:13;;;;;;;;;;;22.10;81.40;;;;;;4963115;28;20314;-75
2022/07/21 07:06:41;;;;;;;;;;;22.10;81.50;;;;;;4957930;28;19962;-74
2022/07/21 07:09:08;;;;;;;;;;;22.10;81.10;;;;;;5023473;28;19934;-74
2022/07/21 07:11:35;;;;;;;;;;;22.10;80.90;;;;;;5025897;28;19930;-75
2022/07/21 07:14:02;;;;;;;;;;;22.10;81.10;;;;;;4968972;28;20017;-74
2022/07/21 07:16:29;;;;;;;;;;;22.10;81.10;;;;;;4980793;28;19934;-75
2022/07/21 07:18:55;;;;;;;;;;;22.10;81.30;;;;;;4984567;28;20283;-75
2022/07/21 07:21:22;;;;;;;;;;;22.10;81.40;;;;;;4955332;28;19972;-74
2022/07/21 07:23:50;;;;;;;;;;;22.10;81.40;;;;;;4949753;28;20318;-75
2022/07/21 07:26:17;;;;;;;;;;;22.10;81.50;;;;;;4981778;28;19926;-77
2022/07/21 07:28:44;;;;;;;;;;;22.20;81.80;;;;;;4960863;28;19926;-77
2022/07/21 07:31:11;;;;;;;;;;;22.10;81.70;;;;;;5030699;28;20155;-74
2022/07/21 07:33:47;;;;;;;;;;;22.20;81.80;;;;;;5026139;28;19927;-76
2022/07/21 07:36:23;;;;;;;;;;;22.20;81.70;;;;;;4968333;28;19926;-74
2022/07/21 07:38:51;;;;;;;;;;;22.10;81.40;;;;;;4979508;28;19938;-75
2022/07/21 07:41:18;;;;;;;;;;;22.20;81.40;;;;;;5026260;28;20004;-75
2022/07/21 07:43:45;;;;;;;;;;;22.20;81.20;;;;;;4989605;28;19930;-74
2022/07/21 07:46:12;;;;;;;;;;;22.20;81.20;;;;;;4967992;28;19926;-75
2022/07/21 07:48:40;;;;;;;;;;;22.10;81.40;;;;;;4974625;28;20026;-76
2022/07/21 07:51:07;;;;;;;;;;;22.10;81.20;;;;;;5017770;28;19930;-77
2022/07/21 07:53:34;;;;;;;;;;;22.10;81.10;;;;;;4963907;28;19976;-78
2022/07/21 07:56:02;;;;;;;;;;;22.10;81.00;;;;;;4983586;28;20020;-77
2022/07/21 07:58:29;;;;;;;;;;;22.10;81.00;;;;;;4974750;28;19988;-77
2022/07/21 08:00:56;;;;;;;;;;;22.10;81.10;;;;;;4963002;28;19931;-77
2022/07/21 08:03:23;;;;;;;;;;;22.10;81.00;;;;;;4993619;28;20332;-77
2022/07/21 08:05:50;;;;;;;;;;;22.20;81.10;;;;;;4984395;28;20013;-77
2022/07/21 08:08:18;;;;;;;;;;;22.20;81.00;;;;;;4965650;28;20312;-76
2022/07/21 08:10:45;;;;;;;;;;;22.10;80.90;;;;;;4971463;28;20400;-76
2022/07/21 08:13:14;;;;;;;;;;;22.10;80.90;;;;;;4969876;28;19934;-76
2022/07/21 08:15:41;;;;;;;;;;;22.10;80.80;;;;;;4958696;28;20373;-77
2022/07/21 08:18:08;;;;;;;;;;;22.20;80.80;;;;;;5028787;28;19961;-76
2022/07/21 08:20:35;;;;;;;;;;;22.10;80.70;;;;;;4969472;28;19970;-77
2022/07/21 08:23:01;;;;;;;;;;;22.10;80.80;;;;;;4983390;28;20020;-77
2022/07/21 08:25:28;;;;;;;;;;;22.20;80.80;;;;;;4973233;28;19926;-76
2022/07/21 08:27:55;;;;;;;;;;;22.10;80.60;;;;;;5031730;28;19930;-76
2022/07/21 08:30:23;;;;;;;;;;;22.20;80.90;;;;;;5041390;28;19959;-76
2022/07/21 08:32:50;;;;;;;;;;;22.20;80.90;;;;;;5030272;28;19937;-76
2022/07/21 08:35:17;;;;;;;;;;;22.20;80.90;;;;;;4975948;28;19930;-77
2022/07/21 08:37:53;;;;;;;;;;;22.20;80.70;;;;;;4978451;28;20331;-77
2022/07/21 08:40:23;;;;;;;;;;;22.20;80.60;;;;;;4962908;28;20308;-77
2022/07/21 08:42:50;;;;;;;;;;;22.20;80.70;;;;;;4971608;28;19926;-77
2022/07/21 08:45:16;;;;;;;;;;;22.20;80.60;;;;;;4993579;28;19926;-76
2022/07/21 08:47:45;;;;;;;;;;;22.20;80.40;;;;;;4980356;28;20441;-77
2022/07/21 08:50:12;;;;;;;;;;;22.20;80.20;;;;;;4973388;28;19930;-77
2022/07/21 08:52:39;;;;;;;;;;;22.20;80.30;;;;;;4965633;28;19934;-77
2022/07/21 08:55:06;;;;;;;;;;;22.20;80.40;;;;;;4984567;28;20032;-77
2022/07/21 08:57:33;;;;;;;;;;;22.20;80.50;;;;;;4968554;28;19935;-76
2022/07/21 09:00:00;;;;;;;;;;;22.20;80.30;;;;;;4991043;28;19932;-77
2022/07/21 09:02:27;;;;;;;;;;;22.20;80.10;;;;;;4966050;28;19926;-77
2022/07/21 09:04:56;;;;;;;;;;;22.20;79.90;;;;;;4965857;28;19926;-76
2022/07/21 09:07:23;;;;;;;;;;;22.20;79.80;;;;;;4966048;28;19926;-76
2022/07/21 09:09:55;;;;;;;;;;;22.20;80.00;;;;;;4975066;28;20009;-78
2022/07/21 09:12:22;;;;;;;;;;;22.30;80.60;;;;;;5027468;28;20387;-78
2022/07/21 09:14:49;;;;;;;;;;;22.30;80.60;;;;;;4970493;28;19934;-77
2022/07/21 09:17:17;;;;;;;;;;;22.30;80.30;;;;;;4971973;28;19935;-77
2022/07/21 09:19:46;;;;;;;;;;;22.30;80.80;;;;;;5032650;28;19926;-77
2022/07/21 09:22:16;;;;;;;;;;;22.30;81.00;;;;;;5027456;28;20299;-76
2022/07/21 09:24:48;;;;;;;;;;;22.30;81.00;;;;;;4971073;28;19934;-76
2022/07/21 09:27:16;;;;;;;;;;;22.30;80.60;;;;;;5005290;28;19926;-76
2022/07/21 09:29:45;;;;;;;;;;;22.30;80.20;;;;;;4957693;28;20285;-78
2022/07/21 09:32:13;;;;;;;;;;;22.30;80.10;;;;;;5030078;28;19937;-77
2022/07/21 09:34:40;;;;;;;;;;;22.30;80.80;;;;;;4965012;28;19934;-77
2022/07/21 09:37:08;;;;;;;;;;;22.40;81.20;;;;;;4964504;28;20438;-77
2022/07/21 09:39:42;;;;;;;;;;;22.40;80.90;;;;;;5027149;28;20004;-77
2022/07/21 09:42:13;;;;;;;;;;;22.40;80.60;;;;;;4970422;28;19930;-75
2022/07/21 09:44:42;;;;;;;;;;;22.40;80.00;;;;;;4978315;28;19928;-75
2022/07/21 09:47:13;;;;;;;;;;;22.40;79.70;;;;;;4968682;28;19958;-74
2022/07/21 09:49:40;;;;;;;;;;;22.40;80.50;;;;;;4961677;28;19926;-74
2022/07/21 09:52:20;;;;;;;;;;;22.40;80.50;;;;;;4974168;28;19973;-75
2022/07/21 09:54:49;;;;;;;;;;;22.40;80.40;;;;;;4962741;28;19925;-75
2022/07/21 09:57:16;;;;;;;;;;;22.40;80.30;;;;;;4977617;28;19925;-73
2022/07/21 09:59:43;;;;;;;;;;;22.50;80.60;;;;;;5024765;28;19976;-74
2022/07/21 10:02:13;;;;;;;;;;;22.50;80.80;;;;;;4978336;28;19960;-73
2022/07/21 10:04:41;;;;;;;;;;;22.50;80.70;;;;;;4976732;28;19972;-73
2022/07/21 10:07:08;;;;;;;;;;;22.50;80.10;;;;;;4961566;28;21623;-75
2022/07/21 10:09:35;;;;;;;;;;;22.50;79.80;;;;;;4966700;28;20420;-73
2022/07/21 10:12:03;;;;;;;;;;;22.50;79.90;;;;;;4982407;28;19926;-73
2022/07/21 10:14:30;;;;;;;;;;;22.50;79.70;;;;;;4963652;28;19949;-73
2022/07/21 10:16:57;;;;;;;;;;;22.50;79.50;;;;;;4989621;28;20029;-75
2022/07/21 10:19:27;;;;;;;;;;;22.50;79.50;;;;;;5033632;28;19972;-72
2022/07/21 10:22:00;;;;;;;;;;;22.60;79.20;;;;;;4964734;28;19927;-72
2022/07/21 10:24:28;;;;;;;;;;;22.60;79.00;;;;;;4963930;28;19927;-73
2022/07/21 10:27:00;;;;;;;;;;;22.60;78.90;;;;;;4954524;28;19934;-72
2022/07/21 10:29:42;;;;;;;;;;;22.60;78.90;;;;;;5023802;28;20694;-73
2022/07/21 10:32:11;;;;;;;;;;;22.60;78.60;;;;;;5037748;28;19946;-73
2022/07/21 10:34:38;;;;;;;;;;;22.60;78.60;;;;;;4966956;28;20045;-73
2022/07/21 10:37:05;;;;;;;;;;;22.60;78.60;;;;;;4965674;28;19926;-72
2022/07/21 10:39:32;;;;;;;;;;;22.60;78.50;;;;;;4969822;28;19932;-75
2022/07/21 10:42:02;;;;;;;;;;;22.60;78.40;;;;;;4961213;28;19930;-73
2022/07/21 10:44:53;;;;;;;;;;;22.70;78.40;;;;;;4964144;28;19980;-75
2022/07/21 10:47:25;;;;;;;;;;;22.70;78.30;;;;;;4961872;28;20388;-74
2022/07/21 10:49:54;;;;;;;;;;;22.70;78.30;;;;;;4974557;28;20390;-73
2022/07/21 10:52:45;;;;;;;;;;;22.70;78.10;;;;;;5025833;28;19932;-72
2022/07/21 10:55:17;;;;;;;;;;;22.70;78.20;;;;;;4967843;28;19933;-72
2022/07/21 10:57:44;;;;;;;;;;;22.70;78.40;;;;;;5026133;28;19926;-73
2022/07/21 11:00:22;;;;;;;;;;;22.70;78.60;;;;;;4974945;28;19934;-73
2022/07/21 11:02:51;;;;;;;;;;;22.80;78.30;;;;;;4969927;28;19925;-72
2022/07/21 11:05:18;;;;;;;;;;;22.80;78.30;;;;;;4971079;28;19968;-73
2022/07/21 11:08:03;;;;;;;;;;;22.80;78.40;;;;;;5037339;28;19934;-73
2022/07/21 11:10:31;;;;;;;;;;;22.80;78.30;;;;;;4967612;28;20093;-73
2022/07/21 11:12:58;;;;;;;;;;;22.80;78.30;;;;;;4970788;28;19973;-72
2022/07/21 11:15:45;;;;;;;;;;;22.80;77.90;;;;;;4966524;28;19938;-72
2022/07/21 11:18:17;;;;;;;;;;;22.90;78.00;;;;;;4969017;28;19933;-72
2022/07/21 11:20:44;;;;;;;;;;;22.90;78.00;;;;;;4970630;28;19926;-73
2022/07/21 11:23:10;;;;;;;;;;;22.90;78.10;;;;;;4971257;28;19937;-73
2022/07/21 11:25:37;;;;;;;;;;;22.90;77.90;;;;;;4970119;28;19926;-73
2022/07/21 11:28:16;;;;;;;;;;;22.90;77.80;;;;;;5027480;28;19926;-73
2022/07/21 11:30:43;;;;;;;;;;;23.00;77.90;;;;;;4974275;28;20229;-72
2022/07/21 11:33:10;;;;;;;;;;;23.00;77.80;;;;;;5041344;28;19933;-73
2022/07/21 11:35:39;;;;;;;;;;;23.00;77.90;;;;;;4966322;28;19934;-73
2022/07/21 11:38:06;;;;;;;;;;;23.00;77.90;;;;;;4961479;28;20434;-73
2022/07/21 11:40:33;;;;;;;;;;;23.00;78.00;;;;;;4969792;28;20029;-73
2022/07/21 11:42:59;;;;;;;;;;;23.10;77.80;;;;;;4966408;28;20176;-73
2022/07/21 11:45:28;;;;;;;;;;;23.10;77.80;;;;;;4969795;28;19934;-72
2022/07/21 11:47:54;;;;;;;;;;;23.10;77.60;;;;;;5031392;28;19930;-73
2022/07/21 11:50:21;;;;;;;;;;;23.10;77.60;;;;;;4974762;28;20493;-73
2022/07/21 11:52:50;;;;;;;;;;;23.10;77.50;;;;;;4963138;28;19925;-73
2022/07/21 11:55:17;;;;;;;;;;;23.20;77.50;;;;;;5028868;28;20038;-73
2022/07/21 11:57:45;;;;;;;;;;;23.20;77.40;;;;;;4969333;28;19926;-73
2022/07/21 12:00:12;;;;;;;;;;;23.20;77.40;;;;;;4968200;28;19972;-73
2022/07/21 12:02:39;;;;;;;;;;;23.20;78.00;;;;;;4979212;28;19930;-73
2022/07/21 12:05:08;;;;;;;;;;;23.20;77.30;;;;;;4971959;28;20075;-73
2022/07/21 12:07:36;;;;;;;;;;;23.20;77.50;;;;;;5031472;28;19952;-73
2022/07/21 12:10:06;;;;;;;;;;;23.20;77.50;;;;;;5032479;28;19945;-73
2022/07/21 12:12:34;;;;;;;;;;;23.30;77.50;;;;;;4970789;28;19931;-72
2022/07/21 12:15:11;;;;;;;;;;;23.30;77.30;;;;;;4980739;28;20025;-72
2022/07/21 12:17:39;;;;;;;;;;;23.20;77.30;;;;;;5052395;28;19927;-73
2022/07/21 12:20:06;;;;;;;;;;;23.30;77.40;;;;;;4967160;28;20017;-73
2022/07/21 12:22:34;;;;;;;;;;;23.30;77.40;;;;;;4944849;28;19934;-73
2022/07/21 12:25:01;;;;;;;;;;;23.30;77.40;;;;;;5034964;28;19938;-73
2022/07/21 12:27:29;;;;;;;;;;;23.40;77.90;;;;;;5009155;28;19930;-73
2022/07/21 12:29:56;;;;;;;;;;;23.40;78.00;;;;;;4961029;28;19971;-73
2022/07/21 12:32:40;;;;;;;;;;;23.40;78.00;;;;;;4964694;28;20005;-73
2022/07/21 12:35:16;;;;;;;;;;;23.50;78.00;;;;;;5037383;28;20293;-73
2022/07/21 12:38:00;;;;;;;;;;;23.50;77.80;;;;;;5016389;28;19980;-72
2022/07/21 12:40:28;;;;;;;;;;;23.50;78.40;;;;;;4964946;28;19931;-72
2022/07/21 12:43:07;;;;;;;;;;;23.50;78.10;;;;;;4958323;28;19934;-72
2022/07/21 12:45:44;;;;;;;;;;;23.50;78.00;;;;;;4947736;28;19927;-72
2022/07/21 12:48:12;;;;;;;;;;;23.60;77.90;;;;;;4959605;28;20428;-73
2022/07/21 12:50:40;;;;;;;;;;;23.70;77.60;;;;;;4960187;28;19930;-72
2022/07/21 12:53:08;;;;;;;;;;;23.70;77.60;;;;;;5016074;28;20113;-73
2022/07/21 12:55:35;;;;;;;;;;;23.80;77.60;;;;;;5023418;28;19941;-72
2022/07/21 12:58:02;;;;;;;;;;;23.70;77.60;;;;;;4964443;28;20458;-72
2022/07/21 13:00:31;;;;;;;;;;;23.80;77.70;;;;;;4954345;28;20043;-73
2022/07/21 13:02:58;;;;;;;;;;;23.80;77.70;;;;;;5018448;28;19926;-73
2022/07/21 13:05:25;;;;;;;;;;;23.90;77.90;;;;;;4965013;28;19930;-73
2022/07/21 13:07:53;;;;;;;;;;;23.90;77.90;;;;;;4948547;28;20009;-73
2022/07/21 13:10:19;;;;;;;;;;;23.90;77.90;;;;;;4969633;28;20421;-73
2022/07/21 13:12:46;;;;;;;;;;;23.90;77.90;;;;;;4958413;28;19969;-72
2022/07/21 13:15:13;;;;;;;;;;;24.00;77.90;;;;;;4978471;28;20383;-73
2022/07/21 13:17:42;;;;;;;;;;;24.00;77.80;;;;;;4960106;28;20021;-73
2022/07/21 13:20:09;;;;;;;;;;;24.00;77.80;;;;;;4962547;28;19930;-73
2022/07/21 13:22:36;;;;;;;;;;;24.10;77.90;;;;;;4961491;28;19937;-73
2022/07/21 13:25:03;;;;;;;;;;;24.10;77.80;;;;;;4952731;28;20392;-73
2022/07/21 13:27:30;;;;;;;;;;;24.20;77.80;;;;;;4964917;28;19977;-73
2022/07/21 13:29:57;;;;;;;;;;;24.20;77.80;;;;;;4962833;28;19928;-73
2022/07/21 13:32:24;;;;;;;;;;;24.20;77.60;;;;;;4973764;28;20432;-74
2022/07/21 13:34:52;;;;;;;;;;;24.20;77.60;;;;;;5022599;28;19926;-73
2022/07/21 13:37:19;;;;;;;;;;;24.30;77.60;;;;;;4949563;28;19938;-74
2022/07/21 13:39:46;;;;;;;;;;;24.30;77.60;;;;;;4941730;28;20577;-73
2022/07/21 13:42:13;;;;;;;;;;;24.50;77.70;;;;;;4940514;28;19945;-74
2022/07/21 13:44:40;;;;;;;;;;;24.50;76.80;;;;;;4956989;28;20054;-74
2022/07/21 13:47:07;;;;;;;;;;;24.60;76.60;;;;;;5015470;28;19941;-73
2022/07/21 13:49:34;;;;;;;;;;;24.50;76.40;;;;;;4960606;28;20424;-72
2022/07/21 13:52:02;;;;;;;;;;;24.60;76.70;;;;;;4969876;28;20011;-73
2022/07/21 13:54:29;;;;;;;;;;;24.60;76.80;;;;;;4966128;28;20485;-76
2022/07/21 13:56:59;;;;;;;;;;;24.70;76.80;;;;;;4971221;28;19935;-73
2022/07/21 13:59:25;;;;;;;;;;;24.60;75.90;;;;;;4964178;28;19980;-73
2022/07/21 14:01:52;;;;;;;;;;;24.70;75.80;;;;;;4958397;28;20492;-74
2022/07/21 14:04:20;;;;;;;;;;;24.70;75.90;;;;;;5015779;23;20020;-90
2022/07/21 14:06:48;;;;;;;;;;;24.70;75.50;;;;;;5080349;27;19965;-91
2022/07/21 14:09:28;;;;;;;;;;;24.80;75.60;;;;;;5070156;28;20435;-94
2022/07/21 14:11:57;;;;;;;;;;;24.80;75.70;;;;;;5069825;28;19993;-92
2022/07/21 14:14:26;;;;;;;;;;;24.80;75.50;;;;;;5075247;27;19925;-93
2022/07/21 14:16:54;;;;;;;;;;;24.90;75.60;;;;;;5073709;22;19938;-76
2022/07/21 14:19:21;;;;;;;;;;;24.90;75.50;;;;;;4952964;28;19938;-75
2022/07/21 14:21:48;;;;;;;;;;;24.90;75.30;;;;;;4944052;28;20323;-75
2022/07/21 14:27:01;;;;;;;;;;;25.00;75.30;;;;;;4955928;28;19957;-78
2022/07/21 14:29:28;;;;;;;;;;;25.00;75.40;;;;;;4952610;28;19930;-74
2022/07/21 14:31:55;;;;;;;;;;;25.10;75.60;;;;;;4956714;28;19966;-76
2022/07/21 14:34:22;;;;;;;;;;;25.00;75.40;;;;;;4957389;28;20025;-74
2022/07/21 14:36:52;;;;;;;;;;;25.10;75.70;;;;;;4950645;28;19932;-77
2022/07/21 14:39:22;;;;;;;;;;;25.10;75.50;;;;;;4955480;28;19926;-76
2022/07/21 14:41:49;;;;;;;;;;;25.20;75.50;;;;;;4955431;28;20362;-74
2022/07/21 14:44:20;;;;;;;;;;;25.20;74.90;;;;;;4953143;28;19926;-74
2022/07/21 14:46:47;;;;;;;;;;;25.20;75.40;;;;;;4958704;28;19965;-74
2022/07/21 14:49:14;;;;;;;;;;;25.20;75.40;;;;;;4962433;28;20168;-75